ZBAA/PEK METAR and TAF weather

Enter ICAO airport designator
Station Type Date Time Source
ZBAA METAR 2019/04/20 22:00 UTC NOAA

ZBAA 202200Z VRB01MPS 5000 R01/1400D R36R/P2000N R36L/P2000U BR NSC 08/08 Q1016 NOSIG


Station Type Date Time Source
ZBAA Decoded METAR 2019/04/20 22:00 UTC NOAA

Beijing, China (ZBAA) 39-56N 116-17E 55M
Apr 20, 2019 - 06:00 PM EDT / 2019.04.20 2200 UTC
Wind: Variable at 2 MPH (2 KT):0
Visibility: 3 mile(s):0
Weather: mist
Temperature: 46 F (8 C)
Dew Point: 46 F (8 C)
Relative Humidity: 100%
Pressure (altimeter): 30.00 in. Hg (1016 hPa)
ob: ZBAA 202200Z VRB01MPS 5000 R01/1400D R36R/P2000N R36L/P2000U BR NSC 08/08 Q1016 NOSIG
cycle: 22

Station Type Date Time Source
ZBAA TAF 2019/04/20 18:03 UTC NOAA

TAF TAF ZBAA 201530Z 2018/2118 17004MPS 5000 BR NSC TX23/2106Z TN08/2021Z

Example: see airport list